createdAt,value
2018-10-20T00:00:54.364Z,99.90
2018-10-20T00:03:22.569Z,99.90
2018-10-20T00:05:50.961Z,99.90
2018-10-20T00:08:19.214Z,99.90
2018-10-20T00:10:47.511Z,99.90
2018-10-20T00:13:15.829Z,99.90
2018-10-20T00:15:44.370Z,99.90
2018-10-20T00:18:12.637Z,99.90
2018-10-20T00:20:40.927Z,99.90
2018-10-20T00:23:09.223Z,99.90
2018-10-20T00:25:37.590Z,99.90
2018-10-20T00:28:05.862Z,99.90
2018-10-20T00:30:34.229Z,99.90
2018-10-20T00:33:02.576Z,99.90
2018-10-20T00:35:30.863Z,99.90
2018-10-20T00:37:59.148Z,99.90
2018-10-20T00:40:27.452Z,99.90
2018-10-20T00:42:55.761Z,99.90
2018-10-20T00:45:24.039Z,99.90
2018-10-20T00:47:52.354Z,99.90
2018-10-20T00:50:20.677Z,99.90
2018-10-20T00:52:49.044Z,99.90
2018-10-20T00:55:17.853Z,99.90
2018-10-20T00:57:46.625Z,99.90
2018-10-20T01:00:14.986Z,99.90
2018-10-20T01:02:43.462Z,99.90
2018-10-20T01:05:11.797Z,99.90
2018-10-20T01:07:40.105Z,99.90
2018-10-20T01:10:08.473Z,99.90
2018-10-20T01:12:36.792Z,99.90
2018-10-20T01:15:06.101Z,99.90
2018-10-20T01:17:35.415Z,99.90
2018-10-20T01:20:03.820Z,99.90
2018-10-20T01:22:32.113Z,99.90
2018-10-20T01:25:00.455Z,99.90
2018-10-20T01:27:28.922Z,99.90
2018-10-20T01:29:57.169Z,99.90
2018-10-20T01:32:25.441Z,99.90
2018-10-20T01:34:53.788Z,99.90
2018-10-20T01:37:22.103Z,99.90
2018-10-20T01:39:50.479Z,99.90
2018-10-20T01:42:20.084Z,99.90
2018-10-20T01:44:48.419Z,99.90
2018-10-20T01:47:17.684Z,99.90
2018-10-20T01:49:47.178Z,99.90
2018-10-20T01:52:16.323Z,99.90
2018-10-20T01:54:44.533Z,99.90
2018-10-20T01:57:12.811Z,99.90
2018-10-20T01:59:41.057Z,99.90
2018-10-20T02:02:10.118Z,99.90
2018-10-20T02:04:39.088Z,99.90
2018-10-20T02:07:07.414Z,99.90
2018-10-20T02:09:35.893Z,99.90
2018-10-20T02:12:04.314Z,99.90
2018-10-20T02:14:32.565Z,99.90
2018-10-20T02:17:00.897Z,99.90
2018-10-20T02:19:29.178Z,99.90
2018-10-20T02:21:57.496Z,99.90
2018-10-20T02:24:25.810Z,99.90
2018-10-20T02:26:54.112Z,99.90
2018-10-20T02:29:22.450Z,99.90
2018-10-20T02:31:50.777Z,99.90
2018-10-20T02:34:19.206Z,99.90
2018-10-20T02:36:47.390Z,99.90
2018-10-20T02:39:15.731Z,99.90
2018-10-20T02:41:44.078Z,99.90
2018-10-20T02:44:12.389Z,99.90
2018-10-20T02:46:40.707Z,99.90
2018-10-20T02:49:09.002Z,99.90
2018-10-20T02:51:37.292Z,99.90
2018-10-20T02:54:05.826Z,99.90
2018-10-20T02:56:34.117Z,99.90
2018-10-20T02:59:02.450Z,99.90
2018-10-20T03:01:30.829Z,99.90
2018-10-20T03:03:59.210Z,99.90
2018-10-20T03:06:27.521Z,99.90
2018-10-20T03:08:55.842Z,99.90
2018-10-20T03:11:24.177Z,99.90
2018-10-20T03:13:52.508Z,99.90
2018-10-20T03:16:20.851Z,99.90
2018-10-20T03:18:49.165Z,99.90
2018-10-20T03:21:17.507Z,99.90
2018-10-20T03:23:45.805Z,99.90
2018-10-20T03:26:14.083Z,99.90
2018-10-20T03:28:42.431Z,99.90
2018-10-20T03:31:10.725Z,99.90
2018-10-20T03:33:38.977Z,99.90
2018-10-20T03:36:07.327Z,99.90
2018-10-20T03:38:35.650Z,99.90
2018-10-20T03:41:04.054Z,99.90
2018-10-20T03:43:32.377Z,99.90
2018-10-20T03:46:00.705Z,99.90
2018-10-20T03:48:29.034Z,99.90
2018-10-20T03:50:57.375Z,99.90
2018-10-20T03:53:25.803Z,99.90
2018-10-20T03:55:54.150Z,99.90
2018-10-20T03:58:33.598Z,99.90
2018-10-20T04:01:14.602Z,99.90
2018-10-20T04:03:43.598Z,99.90
2018-10-20T04:06:12.283Z,99.90
2018-10-20T04:08:40.617Z,99.90
2018-10-20T04:11:08.914Z,99.90
2018-10-20T04:13:37.295Z,99.90
2018-10-20T04:16:05.663Z,99.90
2018-10-20T04:18:34.123Z,99.90
2018-10-20T04:21:02.533Z,99.90
2018-10-20T04:23:32.928Z,99.90
2018-10-20T04:26:03.407Z,99.90
2018-10-20T04:28:32.015Z,99.90
2018-10-20T04:31:00.398Z,99.90
2018-10-20T04:33:28.800Z,99.90
2018-10-20T04:35:57.180Z,99.90
2018-10-20T04:38:25.926Z,99.90
2018-10-20T04:40:55.026Z,99.90
2018-10-20T04:43:23.353Z,99.90
2018-10-20T04:45:51.674Z,99.90
2018-10-20T04:48:20.029Z,99.90
2018-10-20T04:50:49.478Z,99.90
2018-10-20T04:53:18.958Z,99.90
2018-10-20T04:55:47.273Z,99.90
2018-10-20T04:58:16.195Z,99.90
2018-10-20T05:00:44.441Z,99.90
2018-10-20T05:03:12.804Z,99.90
2018-10-20T05:05:41.122Z,99.90
2018-10-20T05:08:09.455Z,99.90
2018-10-20T05:10:37.770Z,99.90
2018-10-20T05:13:17.504Z,99.90
2018-10-20T05:15:45.743Z,99.90
2018-10-20T05:18:14.087Z,99.90
2018-10-20T05:20:42.394Z,99.90
2018-10-20T05:23:10.678Z,99.90
2018-10-20T05:25:39.012Z,99.90
2018-10-20T05:28:08.606Z,99.90
2018-10-20T05:30:37.015Z,99.90
2018-10-20T05:33:05.644Z,99.90
2018-10-20T05:35:33.956Z,99.90
2018-10-20T05:38:02.306Z,99.90
2018-10-20T05:40:32.591Z,99.90
2018-10-20T05:43:01.111Z,99.90
2018-10-20T05:45:29.422Z,99.90
2018-10-20T05:47:57.733Z,99.90
2018-10-20T05:50:26.049Z,99.90
2018-10-20T05:52:54.530Z,99.90
2018-10-20T05:55:22.869Z,99.90
2018-10-20T05:57:51.203Z,99.90
2018-10-20T06:00:20.143Z,99.90
2018-10-20T06:02:48.718Z,99.90
2018-10-20T06:05:17.020Z,99.90
2018-10-20T06:07:45.420Z,99.90
2018-10-20T06:10:15.076Z,99.90
2018-10-20T06:12:43.319Z,99.90
2018-10-20T06:15:12.991Z,99.90
2018-10-20T06:17:41.368Z,99.90
2018-10-20T06:20:21.718Z,99.90
2018-10-20T06:22:50.044Z,99.90
2018-10-20T06:25:19.366Z,99.90
2018-10-20T06:27:47.704Z,99.90
2018-10-20T06:30:16.022Z,99.90
2018-10-20T06:32:45.406Z,99.90
2018-10-20T06:35:13.701Z,99.90
2018-10-20T06:37:42.049Z,99.90
2018-10-20T06:40:10.482Z,99.90
2018-10-20T06:42:38.650Z,99.90
2018-10-20T06:45:08.013Z,99.90
2018-10-20T06:47:36.483Z,99.90
2018-10-20T06:50:04.908Z,99.90
2018-10-20T06:52:33.302Z,99.90
2018-10-20T06:55:01.762Z,99.90
2018-10-20T06:57:30.086Z,99.90
2018-10-20T06:59:58.475Z,99.90
2018-10-20T07:02:26.790Z,99.90
2018-10-20T07:04:55.086Z,99.90
2018-10-20T07:07:23.468Z,99.90
2018-10-20T07:09:51.828Z,99.90
2018-10-20T07:12:20.191Z,99.90
2018-10-20T07:14:49.499Z,99.90
2018-10-20T07:17:23.595Z,99.90
2018-10-20T07:19:51.905Z,99.90
2018-10-20T07:22:20.230Z,99.90
2018-10-20T07:24:48.538Z,99.90
2018-10-20T07:27:16.830Z,99.90
2018-10-20T07:29:45.128Z,99.90
2018-10-20T07:32:13.413Z,99.90
2018-10-20T07:34:41.667Z,99.90
2018-10-20T07:37:16.049Z,99.90
2018-10-20T07:39:44.338Z,99.90
2018-10-20T07:42:12.625Z,99.90
2018-10-20T07:44:41.002Z,99.90
2018-10-20T07:47:09.312Z,99.90
2018-10-20T07:49:37.586Z,99.90
2018-10-20T07:52:10.924Z,99.90
2018-10-20T07:54:39.805Z,99.90
2018-10-20T07:57:08.421Z,99.90
2018-10-20T07:59:37.135Z,99.90
2018-10-20T08:02:05.579Z,99.90
2018-10-20T08:04:33.983Z,99.90
2018-10-20T08:07:02.212Z,99.90
2018-10-20T08:09:31.389Z,99.90
2018-10-20T08:11:59.626Z,99.90
2018-10-20T08:14:27.985Z,99.90
2018-10-20T08:16:56.293Z,99.90
2018-10-20T08:19:24.574Z,99.90
2018-10-20T08:21:52.844Z,99.90
2018-10-20T08:24:23.178Z,99.90
2018-10-20T08:26:51.522Z,99.90
2018-10-20T08:29:19.874Z,99.90
2018-10-20T08:31:48.245Z,99.90
2018-10-20T08:34:16.588Z,99.90
2018-10-20T08:36:44.962Z,99.90
2018-10-20T08:39:13.500Z,99.90
2018-10-20T08:41:41.614Z,99.90
2018-10-20T08:44:10.728Z,99.90
2018-10-20T08:46:39.325Z,99.90
2018-10-20T08:49:08.102Z,99.90
2018-10-20T08:51:36.392Z,99.90
2018-10-20T08:54:04.891Z,99.80
2018-10-20T08:56:33.202Z,99.60
2018-10-20T08:59:01.509Z,99.50
2018-10-20T09:01:29.878Z,99.60
2018-10-20T09:03:58.217Z,99.80
2018-10-20T09:06:26.496Z,99.70
2018-10-20T09:08:54.843Z,99.40
2018-10-20T09:11:24.518Z,99.20
2018-10-20T09:13:52.862Z,99.30
2018-10-20T09:16:21.193Z,99.00
2018-10-20T09:18:51.495Z,98.80
2018-10-20T09:21:19.944Z,98.70
2018-10-20T09:23:48.836Z,98.60
2018-10-20T09:26:17.397Z,98.40
2018-10-20T09:28:45.748Z,98.20
2018-10-20T09:31:14.031Z,97.80
2018-10-20T09:33:42.813Z,97.90
2018-10-20T09:36:11.203Z,98.00
2018-10-20T09:38:40.063Z,98.10
2018-10-20T09:41:08.362Z,98.10
2018-10-20T09:43:36.702Z,97.90
2018-10-20T09:46:05.493Z,97.80
2018-10-20T09:48:34.436Z,97.70
2018-10-20T09:51:02.879Z,97.50
2018-10-20T09:53:31.242Z,97.50
2018-10-20T09:55:59.558Z,97.20
2018-10-20T09:58:29.690Z,96.90
2018-10-20T10:01:09.215Z,97.00
2018-10-20T10:03:39.535Z,97.00
2018-10-20T10:06:09.045Z,96.80
2018-10-20T10:08:39.451Z,96.50
2018-10-20T10:11:07.972Z,96.20
2018-10-20T10:13:36.362Z,96.10
2018-10-20T10:16:05.119Z,95.90
2018-10-20T10:18:33.468Z,95.50
2018-10-20T10:21:01.761Z,95.70
2018-10-20T10:23:35.074Z,95.50
2018-10-20T10:26:03.552Z,95.40
2018-10-20T10:28:31.770Z,95.30
2018-10-20T10:31:00.172Z,95.20
2018-10-20T10:33:28.408Z,95.30
2018-10-20T10:35:58.860Z,95.00
2018-10-20T10:38:31.684Z,94.70
2018-10-20T10:41:37.513Z,94.90
2018-10-20T10:44:10.584Z,94.20
2018-10-20T10:46:45.618Z,93.90
2018-10-20T10:49:21.020Z,93.90
2018-10-20T10:51:52.667Z,93.70
2018-10-20T10:54:33.198Z,93.90
2018-10-20T10:57:07.865Z,94.00
2018-10-20T10:59:45.896Z,94.10
2018-10-20T11:02:27.439Z,94.00
2018-10-20T11:05:06.077Z,93.50
2018-10-20T11:07:39.801Z,93.50
2018-10-20T11:10:14.345Z,93.60
2018-10-20T11:12:46.383Z,93.50
2018-10-20T11:16:21.765Z,93.40
2018-10-20T11:18:58.412Z,93.20
2018-10-20T11:21:32.192Z,93.20
2018-10-20T11:24:06.646Z,93.40
2018-10-20T11:26:42.560Z,93.50
2018-10-20T11:29:16.323Z,93.20
2018-10-20T11:31:48.408Z,92.70
2018-10-20T11:34:23.983Z,92.70
2018-10-20T11:36:57.521Z,92.70
2018-10-20T11:41:36.259Z,92.60
2018-10-20T11:44:10.513Z,92.50
2018-10-20T11:48:51.800Z,91.90
2018-10-20T11:51:24.843Z,91.90
2018-10-20T11:53:53.620Z,90.90
2018-10-20T11:56:27.938Z,90.80
2018-10-20T11:58:56.497Z,90.30
2018-10-20T12:01:38.307Z,90.00
2018-10-20T12:04:06.615Z,89.90
2018-10-20T12:06:34.943Z,89.20
2018-10-20T12:09:03.495Z,89.40
2018-10-20T12:11:31.796Z,89.80
2018-10-20T12:14:03.862Z,89.40
2018-10-20T12:16:37.999Z,87.60
2018-10-20T12:19:07.305Z,87.40
2018-10-20T12:21:35.962Z,87.50
2018-10-20T12:24:04.642Z,88.00
2018-10-20T12:26:32.963Z,87.30
2018-10-20T12:29:05.017Z,87.10
2018-10-20T12:31:43.143Z,87.90
2018-10-20T12:34:13.539Z,88.50
2018-10-20T12:36:41.952Z,88.00
2018-10-20T12:39:12.312Z,88.40
2018-10-20T12:41:40.947Z,88.50
2018-10-20T12:44:13.045Z,88.10
2018-10-20T12:46:41.384Z,87.70
2018-10-20T12:49:09.662Z,88.20
2018-10-20T12:51:38.073Z,89.50
2018-10-20T12:54:07.503Z,89.10
2018-10-20T12:56:41.974Z,89.00
2018-10-20T12:59:10.328Z,88.80
2018-10-20T13:01:38.614Z,89.20
2018-10-20T13:04:06.897Z,88.40
2018-10-20T13:06:35.230Z,88.20
2018-10-20T13:09:04.787Z,88.40
2018-10-20T13:11:33.078Z,87.10
2018-10-20T13:14:01.369Z,87.70
2018-10-20T13:16:29.834Z,87.80
2018-10-20T13:18:58.083Z,88.00
2018-10-20T13:21:28.430Z,88.80
2018-10-20T13:23:56.752Z,89.10
2018-10-20T13:26:25.062Z,88.40
2018-10-20T13:29:01.106Z,88.20
2018-10-20T13:31:31.493Z,86.40
2018-10-20T13:33:59.822Z,86.50
2018-10-20T13:36:28.194Z,85.40
2018-10-20T13:38:56.498Z,85.60
2018-10-20T13:41:24.794Z,84.30
2018-10-20T13:43:53.512Z,84.50
2018-10-20T13:46:26.034Z,84.10
2018-10-20T13:48:54.714Z,84.00
2018-10-20T13:51:23.085Z,82.00
2018-10-20T13:53:54.668Z,82.20
2018-10-20T13:56:22.939Z,81.90
2018-10-20T13:58:51.394Z,80.60
2018-10-20T14:01:19.694Z,81.40
2018-10-20T14:03:47.969Z,82.30
2018-10-20T14:06:16.385Z,82.70
2018-10-20T14:08:44.694Z,84.00
2018-10-20T14:11:13.056Z,84.20
2018-10-20T14:13:46.089Z,86.00
2018-10-20T14:16:14.418Z,87.20
2018-10-20T14:18:42.775Z,88.00
2018-10-20T14:21:11.029Z,88.90
2018-10-20T14:23:39.313Z,89.70
2018-10-20T14:26:07.623Z,90.10
2018-10-20T14:28:35.920Z,90.10
2018-10-20T14:31:04.356Z,90.10
2018-10-20T14:33:32.750Z,90.00
2018-10-20T14:36:01.107Z,89.70
2018-10-20T14:38:29.419Z,88.80
2018-10-20T14:41:01.604Z,89.00
2018-10-20T14:43:29.914Z,88.30
2018-10-20T14:45:58.254Z,87.80
2018-10-20T14:48:26.580Z,87.50
2018-10-20T14:50:59.367Z,87.10
2018-10-20T14:53:27.671Z,86.40
2018-10-20T14:56:06.741Z,86.20
2018-10-20T14:58:35.353Z,86.80
2018-10-20T15:01:09.289Z,86.70
2018-10-20T15:03:37.615Z,86.90
2018-10-20T15:06:06.052Z,87.00
2018-10-20T15:08:34.514Z,87.20
2018-10-20T15:11:02.862Z,87.00
2018-10-20T15:13:31.235Z,87.10
2018-10-20T15:15:59.532Z,87.30
2018-10-20T15:18:27.816Z,87.80
2018-10-20T15:20:56.144Z,88.30
2018-10-20T15:23:24.463Z,88.60
2018-10-20T15:25:53.825Z,88.50
2018-10-20T15:28:22.130Z,88.70
2018-10-20T15:30:55.135Z,88.70
2018-10-20T15:33:23.458Z,89.00
2018-10-20T15:35:51.759Z,89.60
2018-10-20T15:38:20.079Z,89.60
2018-10-20T15:40:55.189Z,89.70
2018-10-20T15:43:23.505Z,90.00
2018-10-20T15:45:52.888Z,90.20
2018-10-20T15:48:21.376Z,90.30
2018-10-20T15:50:49.454Z,90.50
2018-10-20T15:53:18.828Z,90.80
2018-10-20T15:55:53.843Z,90.90
2018-10-20T15:58:22.131Z,91.00
2018-10-20T16:00:55.113Z,91.00
2018-10-20T16:03:23.608Z,91.30
2018-10-20T16:05:54.119Z,91.40
2018-10-20T16:08:22.567Z,91.70
2018-10-20T16:10:50.853Z,91.90
2018-10-20T16:13:19.273Z,92.20
2018-10-20T16:15:47.581Z,92.20
2018-10-20T16:18:16.040Z,92.50
2018-10-20T16:20:44.404Z,92.60
2018-10-20T16:23:16.337Z,93.00
2018-10-20T16:25:44.650Z,93.30
2018-10-20T16:28:13.051Z,93.50
2018-10-20T16:30:42.305Z,93.80
2018-10-20T16:33:10.757Z,94.20
2018-10-20T16:35:39.112Z,94.50
2018-10-20T16:38:08.499Z,94.60
2018-10-20T16:40:36.798Z,94.70
2018-10-20T16:43:05.087Z,95.20
2018-10-20T16:45:33.432Z,95.40
2018-10-20T16:48:01.751Z,95.50
2018-10-20T16:50:33.531Z,95.80
2018-10-20T16:53:06.106Z,95.80
2018-10-20T16:55:34.421Z,95.90
2018-10-20T16:58:02.820Z,96.00
2018-10-20T17:00:31.173Z,96.40
2018-10-20T17:02:59.433Z,96.80
2018-10-20T17:05:27.735Z,97.30
2018-10-20T17:07:56.070Z,98.00
2018-10-20T17:10:24.489Z,98.70
2018-10-20T17:12:52.877Z,99.10
2018-10-20T17:15:25.939Z,99.50
2018-10-20T17:17:54.296Z,99.90
2018-10-20T17:20:22.595Z,99.90
2018-10-20T17:22:50.881Z,99.90
2018-10-20T17:25:19.168Z,99.90
2018-10-20T17:27:47.496Z,99.90
2018-10-20T17:30:15.782Z,99.90
2018-10-20T17:32:48.857Z,99.90
2018-10-20T17:35:17.239Z,99.90
2018-10-20T17:37:45.521Z,99.90
2018-10-20T17:40:15.927Z,99.90
2018-10-20T17:42:47.884Z,99.90
2018-10-20T17:45:15.990Z,99.90
2018-10-20T17:47:44.438Z,99.90
2018-10-20T17:50:12.757Z,99.90
2018-10-20T17:52:41.037Z,99.90
2018-10-20T17:55:09.367Z,99.90
2018-10-20T17:57:37.727Z,99.90
2018-10-20T18:00:07.295Z,99.90
2018-10-20T18:02:35.600Z,99.90
2018-10-20T18:05:04.155Z,99.90
2018-10-20T18:07:32.379Z,99.90
2018-10-20T18:10:00.720Z,99.90
2018-10-20T18:12:28.993Z,99.90
2018-10-20T18:14:57.351Z,99.90
2018-10-20T18:17:25.617Z,99.90
2018-10-20T18:19:53.930Z,99.90
2018-10-20T18:22:22.289Z,99.90
2018-10-20T18:24:50.934Z,99.90
2018-10-20T18:27:19.346Z,99.90
2018-10-20T18:29:47.964Z,99.90
2018-10-20T18:32:16.094Z,99.90
2018-10-20T18:34:44.369Z,99.90
2018-10-20T18:37:12.647Z,99.90
2018-10-20T18:39:41.050Z,99.90
2018-10-20T18:42:09.212Z,99.90
2018-10-20T18:44:37.534Z,99.90
2018-10-20T18:47:05.821Z,99.90
2018-10-20T18:49:33.054Z,99.90
2018-10-20T18:52:01.517Z,99.90
2018-10-20T18:54:29.824Z,99.90
2018-10-20T18:56:58.331Z,99.90
2018-10-20T18:59:26.526Z,99.90
2018-10-20T19:01:54.802Z,99.90
2018-10-20T19:04:23.094Z,99.90
2018-10-20T19:06:51.375Z,99.90
2018-10-20T19:09:19.697Z,99.90
2018-10-20T19:11:47.946Z,99.90
2018-10-20T19:14:16.214Z,99.90
2018-10-20T19:16:44.528Z,99.90
2018-10-20T19:19:12.854Z,99.90
2018-10-20T19:21:41.146Z,99.90
2018-10-20T19:24:14.621Z,99.90
2018-10-20T19:26:43.152Z,99.90
2018-10-20T19:29:11.293Z,99.90
2018-10-20T19:31:39.569Z,99.90
2018-10-20T19:34:07.816Z,99.90
2018-10-20T19:36:36.115Z,99.90
2018-10-20T19:39:06.499Z,99.90
2018-10-20T19:41:34.817Z,99.90
2018-10-20T19:44:03.119Z,99.90
2018-10-20T19:46:31.412Z,99.90
2018-10-20T19:49:03.727Z,99.90
2018-10-20T19:51:32.111Z,99.90
2018-10-20T19:54:00.432Z,99.90
2018-10-20T19:56:28.764Z,99.90
2018-10-20T19:59:01.037Z,99.90
2018-10-20T20:01:29.386Z,99.90
2018-10-20T20:03:57.701Z,99.90
2018-10-20T20:06:26.044Z,99.90
2018-10-20T20:08:54.813Z,99.90
2018-10-20T20:11:23.138Z,99.90
2018-10-20T20:13:51.471Z,99.90
2018-10-20T20:16:19.761Z,99.90
2018-10-20T20:18:48.066Z,99.90
2018-10-20T20:21:20.150Z,99.90
2018-10-20T20:23:48.399Z,99.90
2018-10-20T20:26:16.694Z,99.90
2018-10-20T20:28:45.111Z,99.90
2018-10-20T20:31:13.351Z,99.90
2018-10-20T20:33:41.630Z,99.90
2018-10-20T20:36:09.945Z,99.90
2018-10-20T20:38:38.294Z,99.90
2018-10-20T20:41:06.602Z,99.90
2018-10-20T20:43:34.930Z,99.90
2018-10-20T20:46:03.237Z,99.90
2018-10-20T20:48:32.619Z,99.90
2018-10-20T20:51:00.951Z,99.90
2018-10-20T20:53:29.268Z,99.90
2018-10-20T20:55:57.577Z,99.90
2018-10-20T20:58:25.865Z,99.90
2018-10-20T21:00:54.183Z,99.90
2018-10-20T21:03:22.497Z,99.90
2018-10-20T21:05:50.745Z,99.90
2018-10-20T21:08:19.167Z,99.90
2018-10-20T21:10:47.454Z,99.90
2018-10-20T21:13:15.747Z,99.90
2018-10-20T21:15:44.116Z,99.90
2018-10-20T21:18:12.336Z,99.90
2018-10-20T21:20:40.610Z,99.90
2018-10-20T21:23:08.890Z,99.90
2018-10-20T21:25:37.268Z,99.90
2018-10-20T21:28:10.998Z,99.90
2018-10-20T21:30:39.272Z,99.90
2018-10-20T21:33:07.559Z,99.90
2018-10-20T21:35:35.829Z,99.90
2018-10-20T21:38:04.156Z,99.90
2018-10-20T21:40:36.241Z,99.90
2018-10-20T21:43:04.462Z,99.90
2018-10-20T21:45:32.733Z,99.90
2018-10-20T21:48:01.045Z,99.90
2018-10-20T21:50:29.456Z,99.90
2018-10-20T21:52:57.748Z,99.90
2018-10-20T21:55:31.350Z,99.90
2018-10-20T21:57:59.600Z,99.90
2018-10-20T22:00:27.902Z,99.90
2018-10-20T22:02:56.221Z,99.90
2018-10-20T22:05:24.497Z,99.90
2018-10-20T22:07:52.944Z,99.90
2018-10-20T22:10:21.266Z,99.90
2018-10-20T22:12:49.573Z,99.90
2018-10-20T22:15:17.967Z,99.90
2018-10-20T22:17:46.178Z,99.90
2018-10-20T22:20:14.466Z,99.90
2018-10-20T22:22:42.873Z,99.90
2018-10-20T22:25:11.179Z,99.90
2018-10-20T22:27:39.491Z,99.90
2018-10-20T22:30:07.887Z,99.90
2018-10-20T22:32:36.219Z,99.90
2018-10-20T22:35:05.010Z,99.90
2018-10-20T22:37:33.309Z,99.90
2018-10-20T22:40:01.581Z,99.90
2018-10-20T22:42:29.844Z,99.90
2018-10-20T22:44:58.139Z,99.90
2018-10-20T22:47:26.407Z,99.90
2018-10-20T22:49:54.704Z,99.90
2018-10-20T22:52:22.974Z,99.90
2018-10-20T22:54:52.221Z,99.90
2018-10-20T22:57:20.620Z,99.90
2018-10-20T22:59:48.989Z,99.90
2018-10-20T23:02:17.255Z,99.90
2018-10-20T23:04:45.502Z,99.90
2018-10-20T23:07:13.906Z,99.90
2018-10-20T23:09:42.211Z,99.90
2018-10-20T23:12:10.579Z,99.90
2018-10-20T23:14:38.866Z,99.90
2018-10-20T23:17:07.175Z,99.90
2018-10-20T23:19:35.434Z,99.90
2018-10-20T23:22:03.803Z,99.90
2018-10-20T23:24:32.197Z,99.90
2018-10-20T23:27:00.489Z,99.90
2018-10-20T23:29:28.698Z,99.90
2018-10-20T23:31:57.009Z,99.90
2018-10-20T23:34:25.316Z,99.90
2018-10-20T23:36:54.013Z,99.90
2018-10-20T23:39:22.271Z,99.90
2018-10-20T23:41:50.573Z,99.90
2018-10-20T23:44:18.821Z,99.90
2018-10-20T23:46:47.111Z,99.90
2018-10-20T23:49:15.358Z,99.90
2018-10-20T23:51:43.660Z,99.90
2018-10-20T23:54:12.009Z,99.90
2018-10-20T23:56:40.275Z,99.90
2018-10-20T23:59:08.538Z,99.90
